sensor_id;sensor_type;location;lat;lon;timestamp;temperature;humidity
27697;DHT22;15105;56.514;21.002;2022-08-07T00:00:55;18.20;99.90
27697;DHT22;15105;56.514;21.002;2022-08-07T00:03:25;18.10;99.90
27697;DHT22;15105;56.514;21.002;2022-08-07T00:06:03;18.10;99.90
27697;DHT22;15105;56.514;21.002;2022-08-07T00:08:32;18.10;99.90
27697;DHT22;15105;56.514;21.002;2022-08-07T00:11:01;18.00;99.90
27697;DHT22;15105;56.514;21.002;2022-08-07T00:13:33;18.00;99.90
27697;DHT22;15105;56.514;21.002;2022-08-07T00:16:10;18.00;99.90
27697;DHT22;15105;56.514;21.002;2022-08-07T00:18:52;17.90;99.90
27697;DHT22;15105;56.514;21.002;2022-08-07T00:21:19;17.90;99.90
27697;DHT22;15105;56.514;21.002;2022-08-07T00:24:09;17.90;99.90
27697;DHT22;15105;56.514;21.002;2022-08-07T00:26:37;17.80;99.90
27697;DHT22;15105;56.514;21.002;2022-08-07T00:29:25;17.80;99.90
27697;DHT22;15105;56.514;21.002;2022-08-07T00:31:57;17.80;99.90
27697;DHT22;15105;56.514;21.002;2022-08-07T00:34:26;17.80;99.90
27697;DHT22;15105;56.514;21.002;2022-08-07T00:36:55;17.80;99.90
27697;DHT22;15105;56.514;21.002;2022-08-07T00:39:22;17.80;99.90
27697;DHT22;15105;56.514;21.002;2022-08-07T00:41:53;17.80;99.90
27697;DHT22;15105;56.514;21.002;2022-08-07T00:44:34;17.80;99.90
27697;DHT22;15105;56.514;21.002;2022-08-07T00:47:07;17.70;99.90
27697;DHT22;15105;56.514;21.002;2022-08-07T00:49:54;17.70;99.90
27697;DHT22;15105;56.514;21.002;2022-08-07T00:52:41;17.70;99.90
27697;DHT22;15105;56.514;21.002;2022-08-07T00:55:13;17.60;99.90
27697;DHT22;15105;56.514;21.002;2022-08-07T00:57:51;17.60;99.90
27697;DHT22;15105;56.514;21.002;2022-08-07T01:00:22;17.60;99.90
27697;DHT22;15105;56.514;21.002;2022-08-07T01:02:53;17.60;99.90
27697;DHT22;15105;56.514;21.002;2022-08-07T01:05:20;17.60;99.90
27697;DHT22;15105;56.514;21.002;2022-08-07T01:07:50;17.60;99.90
27697;DHT22;15105;56.514;21.002;2022-08-07T01:10:18;17.60;99.90
27697;DHT22;15105;56.514;21.002;2022-08-07T01:12:47;17.60;99.90
27697;DHT22;15105;56.514;21.002;2022-08-07T01:15:23;17.60;99.90
27697;DHT22;15105;56.514;21.002;2022-08-07T01:18:11;17.60;99.90
27697;DHT22;15105;56.514;21.002;2022-08-07T01:23:49;17.50;99.90
27697;DHT22;15105;56.514;21.002;2022-08-07T01:26:18;17.50;99.90
27697;DHT22;15105;56.514;21.002;2022-08-07T01:28:54;17.50;99.90
27697;DHT22;15105;56.514;21.002;2022-08-07T01:31:22;17.50;99.90
27697;DHT22;15105;56.514;21.002;2022-08-07T01:34:11;17.50;99.90
27697;DHT22;15105;56.514;21.002;2022-08-07T01:36:43;17.40;99.90
27697;DHT22;15105;56.514;21.002;2022-08-07T01:39:18;17.40;99.90
27697;DHT22;15105;56.514;21.002;2022-08-07T01:41:46;17.40;99.90
27697;DHT22;15105;56.514;21.002;2022-08-07T01:44:33;17.40;99.90
27697;DHT22;15105;56.514;21.002;2022-08-07T01:47:01;17.40;99.90
27697;DHT22;15105;56.514;21.002;2022-08-07T01:49:48;17.50;99.90
27697;DHT22;15105;56.514;21.002;2022-08-07T01:52:24;17.50;99.90
27697;DHT22;15105;56.514;21.002;2022-08-07T01:54:54;17.50;99.90
27697;DHT22;15105;56.514;21.002;2022-08-07T01:57:27;17.50;99.90
27697;DHT22;15105;56.514;21.002;2022-08-07T02:00:22;17.50;99.90
27697;DHT22;15105;56.514;21.002;2022-08-07T02:03:00;17.50;99.90
27697;DHT22;15105;56.514;21.002;2022-08-07T02:05:51;17.50;99.90
27697;DHT22;15105;56.514;21.002;2022-08-07T02:08:26;17.50;99.90
27697;DHT22;15105;56.514;21.002;2022-08-07T02:10:58;17.50;99.90
27697;DHT22;15105;56.514;21.002;2022-08-07T02:13:31;17.40;99.90
27697;DHT22;15105;56.514;21.002;2022-08-07T02:16:21;17.40;99.90
27697;DHT22;15105;56.514;21.002;2022-08-07T02:19:03;17.40;99.90
27697;DHT22;15105;56.514;21.002;2022-08-07T02:22:11;17.40;99.90
27697;DHT22;15105;56.514;21.002;2022-08-07T02:24:45;17.50;99.90
27697;DHT22;15105;56.514;21.002;2022-08-07T02:27:17;17.50;99.90
27697;DHT22;15105;56.514;21.002;2022-08-07T02:29:45;17.50;99.90
27697;DHT22;15105;56.514;21.002;2022-08-07T02:32:21;17.40;99.90
27697;DHT22;15105;56.514;21.002;2022-08-07T02:34:56;17.40;99.90
27697;DHT22;15105;56.514;21.002;2022-08-07T02:37:26;17.40;99.90
27697;DHT22;15105;56.514;21.002;2022-08-07T02:40:04;17.40;99.90
27697;DHT22;15105;56.514;21.002;2022-08-07T02:42:59;17.40;99.90
27697;DHT22;15105;56.514;21.002;2022-08-07T02:45:36;17.30;99.90
27697;DHT22;15105;56.514;21.002;2022-08-07T02:48:24;17.30;99.90
27697;DHT22;15105;56.514;21.002;2022-08-07T02:50:54;17.20;99.90
27697;DHT22;15105;56.514;21.002;2022-08-07T02:53:25;17.20;99.90
27697;DHT22;15105;56.514;21.002;2022-08-07T02:55:55;17.30;99.90
27697;DHT22;15105;56.514;21.002;2022-08-07T02:58:32;17.30;99.90
27697;DHT22;15105;56.514;21.002;2022-08-07T03:01:01;17.30;99.90
27697;DHT22;15105;56.514;21.002;2022-08-07T03:03:33;17.30;99.90
27697;DHT22;15105;56.514;21.002;2022-08-07T03:06:16;17.30;99.90
27697;DHT22;15105;56.514;21.002;2022-08-07T03:09:00;17.40;99.90
27697;DHT22;15105;56.514;21.002;2022-08-07T03:11:31;17.40;99.90
27697;DHT22;15105;56.514;21.002;2022-08-07T03:14:04;17.40;99.90
27697;DHT22;15105;56.514;21.002;2022-08-07T03:16:34;17.40;99.90
27697;DHT22;15105;56.514;21.002;2022-08-07T03:19:04;17.50;99.90
27697;DHT22;15105;56.514;21.002;2022-08-07T03:21:31;17.50;99.90
27697;DHT22;15105;56.514;21.002;2022-08-07T03:24:01;17.40;99.90
27697;DHT22;15105;56.514;21.002;2022-08-07T03:26:49;17.40;99.90
27697;DHT22;15105;56.514;21.002;2022-08-07T03:29:28;17.40;99.90
27697;DHT22;15105;56.514;21.002;2022-08-07T03:32:23;17.40;99.90
27697;DHT22;15105;56.514;21.002;2022-08-07T03:34:56;17.40;99.90
27697;DHT22;15105;56.514;21.002;2022-08-07T03:37:49;17.40;99.90
27697;DHT22;15105;56.514;21.002;2022-08-07T03:40:22;17.30;99.90
27697;DHT22;15105;56.514;21.002;2022-08-07T03:43:03;17.30;99.90
27697;DHT22;15105;56.514;21.002;2022-08-07T03:45:40;17.30;99.90
27697;DHT22;15105;56.514;21.002;2022-08-07T03:48:13;17.30;99.90
27697;DHT22;15105;56.514;21.002;2022-08-07T03:50:41;17.20;99.90
27697;DHT22;15105;56.514;21.002;2022-08-07T03:53:23;17.20;99.90
27697;DHT22;15105;56.514;21.002;2022-08-07T03:56:17;17.30;99.90
27697;DHT22;15105;56.514;21.002;2022-08-07T03:59:01;17.40;99.90
27697;DHT22;15105;56.514;21.002;2022-08-07T04:01:42;17.60;99.90
27697;DHT22;15105;56.514;21.002;2022-08-07T04:04:14;18.40;99.90
27697;DHT22;15105;56.514;21.002;2022-08-07T04:06:44;19.20;99.90
27697;DHT22;15105;56.514;21.002;2022-08-07T04:09:12;20.00;99.90
27697;DHT22;15105;56.514;21.002;2022-08-07T04:11:43;20.60;99.90
27697;DHT22;15105;56.514;21.002;2022-08-07T04:14:32;21.20;99.90
27697;DHT22;15105;56.514;21.002;2022-08-07T04:17:10;21.70;99.90
27697;DHT22;15105;56.514;21.002;2022-08-07T04:19:57;22.00;99.90
27697;DHT22;15105;56.514;21.002;2022-08-07T04:22:25;21.20;99.90
27697;DHT22;15105;56.514;21.002;2022-08-07T04:24:56;20.80;99.90
27697;DHT22;15105;56.514;21.002;2022-08-07T04:27:24;20.40;99.90
27697;DHT22;15105;56.514;21.002;2022-08-07T04:29:54;19.90;99.90
27697;DHT22;15105;56.514;21.002;2022-08-07T04:32:29;19.40;99.90
27697;DHT22;15105;56.514;21.002;2022-08-07T04:35:20;18.90;99.90
27697;DHT22;15105;56.514;21.002;2022-08-07T04:37:49;18.50;99.90
27697;DHT22;15105;56.514;21.002;2022-08-07T04:40:33;18.30;99.90
27697;DHT22;15105;56.514;21.002;2022-08-07T04:43:00;18.20;99.90
27697;DHT22;15105;56.514;21.002;2022-08-07T04:48:44;19.00;99.90
27697;DHT22;15105;56.514;21.002;2022-08-07T04:51:36;20.20;99.90
27697;DHT22;15105;56.514;21.002;2022-08-07T04:57:42;21.50;99.90
27697;DHT22;15105;56.514;21.002;2022-08-07T05:00:11;21.80;99.90
27697;DHT22;15105;56.514;21.002;2022-08-07T05:03:08;21.20;99.90
27697;DHT22;15105;56.514;21.002;2022-08-07T05:06:20;20.70;99.90
27697;DHT22;15105;56.514;21.002;2022-08-07T06:06:15;18.60;99.90
27697;DHT22;15105;56.514;21.002;2022-08-07T06:08:46;18.80;99.90
27697;DHT22;15105;56.514;21.002;2022-08-07T06:11:17;18.90;99.90
27697;DHT22;15105;56.514;21.002;2022-08-07T06:13:46;18.80;99.90
27697;DHT22;15105;56.514;21.002;2022-08-07T06:16:34;18.80;99.90
27697;DHT22;15105;56.514;21.002;2022-08-07T06:19:02;18.80;99.90
27697;DHT22;15105;56.514;21.002;2022-08-07T06:21:32;18.80;99.90
27697;DHT22;15105;56.514;21.002;2022-08-07T06:24:19;18.80;99.90
27697;DHT22;15105;56.514;21.002;2022-08-07T06:27:09;18.80;99.90
27697;DHT22;15105;56.514;21.002;2022-08-07T06:29:49;18.90;99.90
27697;DHT22;15105;56.514;21.002;2022-08-07T06:32:16;19.00;99.90
27697;DHT22;15105;56.514;21.002;2022-08-07T06:34:44;19.00;99.90
27697;DHT22;15105;56.514;21.002;2022-08-07T06:37:12;18.90;99.90
27697;DHT22;15105;56.514;21.002;2022-08-07T06:39:46;18.80;99.90
27697;DHT22;15105;56.514;21.002;2022-08-07T06:42:35;18.70;99.90
27697;DHT22;15105;56.514;21.002;2022-08-07T06:45:19;18.60;99.90
27697;DHT22;15105;56.514;21.002;2022-08-07T06:47:49;18.60;99.90
27697;DHT22;15105;56.514;21.002;2022-08-07T06:50:25;18.70;99.90
27697;DHT22;15105;56.514;21.002;2022-08-07T06:52:56;18.80;99.90
27697;DHT22;15105;56.514;21.002;2022-08-07T06:55:29;18.80;99.90
27697;DHT22;15105;56.514;21.002;2022-08-07T06:58:17;18.80;99.90
27697;DHT22;15105;56.514;21.002;2022-08-07T07:00:51;18.80;99.90
27697;DHT22;15105;56.514;21.002;2022-08-07T07:03:19;18.80;99.90
27697;DHT22;15105;56.514;21.002;2022-08-07T07:06:09;18.80;99.90
27697;DHT22;15105;56.514;21.002;2022-08-07T07:08:49;18.90;99.90
27697;DHT22;15105;56.514;21.002;2022-08-07T07:11:19;19.00;99.90
27697;DHT22;15105;56.514;21.002;2022-08-07T07:14:07;18.90;99.90
27697;DHT22;15105;56.514;21.002;2022-08-07T07:16:41;18.80;99.90
27697;DHT22;15105;56.514;21.002;2022-08-07T07:19:20;18.70;99.90
27697;DHT22;15105;56.514;21.002;2022-08-07T07:22:09;18.80;99.90
27697;DHT22;15105;56.514;21.002;2022-08-07T07:24:59;18.70;99.90
27697;DHT22;15105;56.514;21.002;2022-08-07T07:28:09;18.70;99.90
27697;DHT22;15105;56.514;21.002;2022-08-07T07:31:07;18.80;99.90
27697;DHT22;15105;56.514;21.002;2022-08-07T07:33:51;18.80;99.90
27697;DHT22;15105;56.514;21.002;2022-08-07T07:36:24;18.90;99.90
27697;DHT22;15105;56.514;21.002;2022-08-07T07:38:59;19.00;99.90
27697;DHT22;15105;56.514;21.002;2022-08-07T07:41:28;19.20;99.90
27697;DHT22;15105;56.514;21.002;2022-08-07T07:44:20;19.20;99.90
27697;DHT22;15105;56.514;21.002;2022-08-07T07:46:53;19.00;99.90
27697;DHT22;15105;56.514;21.002;2022-08-07T07:49:43;19.10;99.90
27697;DHT22;15105;56.514;21.002;2022-08-07T07:52:33;19.30;99.90
27697;DHT22;15105;56.514;21.002;2022-08-07T07:55:07;19.70;99.90
27697;DHT22;15105;56.514;21.002;2022-08-07T07:57:39;19.70;99.90
27697;DHT22;15105;56.514;21.002;2022-08-07T08:00:19;19.60;99.90
27697;DHT22;15105;56.514;21.002;2022-08-07T08:03:15;19.70;99.90
27697;DHT22;15105;56.514;21.002;2022-08-07T08:06:11;19.90;99.90
27697;DHT22;15105;56.514;21.002;2022-08-07T08:08:39;20.20;99.90
27697;DHT22;15105;56.514;21.002;2022-08-07T08:11:14;20.30;99.90
27697;DHT22;15105;56.514;21.002;2022-08-07T08:14:02;20.10;99.90
27697;DHT22;15105;56.514;21.002;2022-08-07T08:16:41;19.90;99.90
27697;DHT22;15105;56.514;21.002;2022-08-07T08:19:18;19.90;99.90
27697;DHT22;15105;56.514;21.002;2022-08-07T08:22:10;19.80;99.90
27697;DHT22;15105;56.514;21.002;2022-08-07T08:25:02;19.70;99.90
27697;DHT22;15105;56.514;21.002;2022-08-07T08:28:11;19.80;99.90
27697;DHT22;15105;56.514;21.002;2022-08-07T08:31:05;20.20;99.90
27697;DHT22;15105;56.514;21.002;2022-08-07T08:33:41;20.30;99.90
27697;DHT22;15105;56.514;21.002;2022-08-07T08:36:18;20.40;99.90
27697;DHT22;15105;56.514;21.002;2022-08-07T08:39:00;20.80;99.90
27697;DHT22;15105;56.514;21.002;2022-08-07T08:41:45;21.20;99.90
27697;DHT22;15105;56.514;21.002;2022-08-07T08:44:34;21.40;99.90
27697;DHT22;15105;56.514;21.002;2022-08-07T08:47:37;21.60;99.90
27697;DHT22;15105;56.514;21.002;2022-08-07T08:50:24;21.30;99.90
27697;DHT22;15105;56.514;21.002;2022-08-07T08:56:02;20.40;99.90
27697;DHT22;15105;56.514;21.002;2022-08-07T08:58:48;20.60;99.90
27697;DHT22;15105;56.514;21.002;2022-08-07T09:07:16;21.60;99.90
27697;DHT22;15105;56.514;21.002;2022-08-07T09:13:10;22.10;99.90
27697;DHT22;15105;56.514;21.002;2022-08-07T09:22:02;21.40;99.90
27697;DHT22;15105;56.514;21.002;2022-08-07T09:25:11;21.20;99.90
27697;DHT22;15105;56.514;21.002;2022-08-07T09:28:05;21.10;99.90
27697;DHT22;15105;56.514;21.002;2022-08-07T09:33:34;20.30;99.90
27697;DHT22;15105;56.514;21.002;2022-08-07T09:36:36;20.40;99.90
27697;DHT22;15105;56.514;21.002;2022-08-07T09:39:15;20.80;99.90
27697;DHT22;15105;56.514;21.002;2022-08-07T09:54:35;20.90;99.90
27697;DHT22;15105;56.514;21.002;2022-08-07T10:00:06;21.00;99.90
27697;DHT22;15105;56.514;21.002;2022-08-07T10:05:54;21.50;99.90
27697;DHT22;15105;56.514;21.002;2022-08-07T10:11:57;21.40;99.90
27697;DHT22;15105;56.514;21.002;2022-08-07T10:18:33;21.20;99.90
27697;DHT22;15105;56.514;21.002;2022-08-07T10:21:25;21.40;99.90
27697;DHT22;15105;56.514;21.002;2022-08-07T10:30:17;21.00;99.90
27697;DHT22;15105;56.514;21.002;2022-08-07T10:41:45;20.60;99.90
27697;DHT22;15105;56.514;21.002;2022-08-07T10:50:30;20.90;99.90
27697;DHT22;15105;56.514;21.002;2022-08-07T10:53:09;21.20;99.90
27697;DHT22;15105;56.514;21.002;2022-08-07T11:08:53;20.30;99.90
27697;DHT22;15105;56.514;21.002;2022-08-07T11:11:38;20.50;99.90
27697;DHT22;15105;56.514;21.002;2022-08-07T11:14:21;20.60;99.90
27697;DHT22;15105;56.514;21.002;2022-08-07T11:17:29;20.50;99.90
27697;DHT22;15105;56.514;21.002;2022-08-07T11:20:21;20.80;99.90
27697;DHT22;15105;56.514;21.002;2022-08-07T11:26:13;21.00;99.90
27697;DHT22;15105;56.514;21.002;2022-08-07T11:34:23;20.50;99.90
27697;DHT22;15105;56.514;21.002;2022-08-07T11:37:10;20.40;99.90
27697;DHT22;15105;56.514;21.002;2022-08-07T12:56:36;20.50;99.90
27697;DHT22;15105;56.514;21.002;2022-08-07T12:59:07;20.70;99.90
27697;DHT22;15105;56.514;21.002;2022-08-07T13:05:24;20.60;99.90
27697;DHT22;15105;56.514;21.002;2022-08-07T13:14:01;20.40;99.90
27697;DHT22;15105;56.514;21.002;2022-08-07T13:16:54;20.60;99.90
27697;DHT22;15105;56.514;21.002;2022-08-07T13:19:27;20.80;99.90
27697;DHT22;15105;56.514;21.002;2022-08-07T13:22:25;20.80;99.90
27697;DHT22;15105;56.514;21.002;2022-08-07T13:25:05;20.80;99.90
27697;DHT22;15105;56.514;21.002;2022-08-07T13:27:54;20.70;99.90
27697;DHT22;15105;56.514;21.002;2022-08-07T13:30:43;20.70;99.90
27697;DHT22;15105;56.514;21.002;2022-08-07T13:33:30;20.60;99.90
27697;DHT22;15105;56.514;21.002;2022-08-07T13:36:29;20.50;99.90
27697;DHT22;15105;56.514;21.002;2022-08-07T13:39:25;20.20;99.90
27697;DHT22;15105;56.514;21.002;2022-08-07T13:42:14;19.70;99.90
27697;DHT22;15105;56.514;21.002;2022-08-07T13:44:48;19.80;99.90
27697;DHT22;15105;56.514;21.002;2022-08-07T13:47:38;19.90;99.90
27697;DHT22;15105;56.514;21.002;2022-08-07T13:50:29;20.10;99.90
27697;DHT22;15105;56.514;21.002;2022-08-07T13:53:20;19.90;99.90
27697;DHT22;15105;56.514;21.002;2022-08-07T13:55:50;19.80;99.90
27697;DHT22;15105;56.514;21.002;2022-08-07T13:58:23;19.80;99.90
27697;DHT22;15105;56.514;21.002;2022-08-07T14:01:23;19.90;99.90
27697;DHT22;15105;56.514;21.002;2022-08-07T14:03:53;20.00;99.90
27697;DHT22;15105;56.514;21.002;2022-08-07T14:06:36;20.10;99.90
27697;DHT22;15105;56.514;21.002;2022-08-07T14:09:23;19.90;99.90
27697;DHT22;15105;56.514;21.002;2022-08-07T14:12:28;19.80;99.90
27697;DHT22;15105;56.514;21.002;2022-08-07T14:15:06;19.90;99.90
27697;DHT22;15105;56.514;21.002;2022-08-07T14:17:37;19.80;99.90
27697;DHT22;15105;56.514;21.002;2022-08-07T14:20:28;19.80;99.90
27697;DHT22;15105;56.514;21.002;2022-08-07T14:23:25;20.00;99.90
27697;DHT22;15105;56.514;21.002;2022-08-07T14:26:20;20.20;99.90
27697;DHT22;15105;56.514;21.002;2022-08-07T14:29:00;20.20;99.90
27697;DHT22;15105;56.514;21.002;2022-08-07T14:31:53;20.20;99.90
27697;DHT22;15105;56.514;21.002;2022-08-07T14:34:25;20.20;99.90
27697;DHT22;15105;56.514;21.002;2022-08-07T14:37:02;20.20;99.90
27697;DHT22;15105;56.514;21.002;2022-08-07T14:39:31;20.10;99.90
27697;DHT22;15105;56.514;21.002;2022-08-07T14:42:26;20.00;99.90
27697;DHT22;15105;56.514;21.002;2022-08-07T14:45:02;19.90;99.90
27697;DHT22;15105;56.514;21.002;2022-08-07T14:47:49;19.90;99.90
27697;DHT22;15105;56.514;21.002;2022-08-07T14:50:42;19.80;99.90
27697;DHT22;15105;56.514;21.002;2022-08-07T14:53:11;19.80;99.90
27697;DHT22;15105;56.514;21.002;2022-08-07T14:55:40;19.70;99.90
27697;DHT22;15105;56.514;21.002;2022-08-07T14:58:30;19.70;99.90
27697;DHT22;15105;56.514;21.002;2022-08-07T15:00:59;19.70;99.90
27697;DHT22;15105;56.514;21.002;2022-08-07T15:03:48;19.70;99.90
27697;DHT22;15105;56.514;21.002;2022-08-07T15:06:27;19.70;99.90
27697;DHT22;15105;56.514;21.002;2022-08-07T15:09:15;19.50;99.90
27697;DHT22;15105;56.514;21.002;2022-08-07T15:12:10;19.60;99.90
27697;DHT22;15105;56.514;21.002;2022-08-07T15:15:28;19.60;99.90
27697;DHT22;15105;56.514;21.002;2022-08-07T15:18:09;19.60;99.90
27697;DHT22;15105;56.514;21.002;2022-08-07T15:21:04;19.60;99.90
27697;DHT22;15105;56.514;21.002;2022-08-07T15:23:58;19.60;99.90
27697;DHT22;15105;56.514;21.002;2022-08-07T15:26:50;19.80;99.90
27697;DHT22;15105;56.514;21.002;2022-08-07T15:29:21;19.80;99.90
27697;DHT22;15105;56.514;21.002;2022-08-07T15:32:10;19.80;99.90
27697;DHT22;15105;56.514;21.002;2022-08-07T15:34:48;19.60;99.90
27697;DHT22;15105;56.514;21.002;2022-08-07T15:37:25;19.50;99.90
27697;DHT22;15105;56.514;21.002;2022-08-07T15:39:56;19.30;99.90
27697;DHT22;15105;56.514;21.002;2022-08-07T15:50:49;19.30;99.90
27697;DHT22;15105;56.514;21.002;2022-08-07T15:53:38;19.30;99.90
27697;DHT22;15105;56.514;21.002;2022-08-07T15:56:28;19.30;99.90
27697;DHT22;15105;56.514;21.002;2022-08-07T15:59:04;19.30;99.90
27697;DHT22;15105;56.514;21.002;2022-08-07T16:01:51;19.20;99.90
27697;DHT22;15105;56.514;21.002;2022-08-07T16:04:30;19.00;99.90
27697;DHT22;15105;56.514;21.002;2022-08-07T16:07:04;18.90;99.90
27697;DHT22;15105;56.514;21.002;2022-08-07T16:10:22;18.80;99.90
27697;DHT22;15105;56.514;21.002;2022-08-07T16:16:37;18.90;99.90
27697;DHT22;15105;56.514;21.002;2022-08-07T16:22:36;18.80;99.90
27697;DHT22;15105;56.514;21.002;2022-08-07T16:31:21;18.70;99.90
27697;DHT22;15105;56.514;21.002;2022-08-07T16:49:48;18.20;99.90
27697;DHT22;15105;56.514;21.002;2022-08-07T16:58:50;18.30;99.90
27697;DHT22;15105;56.514;21.002;2022-08-07T17:02:49;18.40;99.90
27697;DHT22;15105;56.514;21.002;2022-08-07T17:05:25;18.40;99.90
27697;DHT22;15105;56.514;21.002;2022-08-07T17:08:31;18.30;99.90
27697;DHT22;15105;56.514;21.002;2022-08-07T17:11:40;18.40;99.90
27697;DHT22;15105;56.514;21.002;2022-08-07T17:14:56;18.40;99.90
27697;DHT22;15105;56.514;21.002;2022-08-07T17:23:02;18.30;99.90
27697;DHT22;15105;56.514;21.002;2022-08-07T17:31:33;18.20;99.90
27697;DHT22;15105;56.514;21.002;2022-08-07T17:34:56;18.20;99.90
27697;DHT22;15105;56.514;21.002;2022-08-07T17:37:45;18.10;99.90
27697;DHT22;15105;56.514;21.002;2022-08-07T17:40:43;18.00;99.90
27697;DHT22;15105;56.514;21.002;2022-08-07T17:43:27;18.00;99.90
27697;DHT22;15105;56.514;21.002;2022-08-07T17:46:49;18.00;99.90
27697;DHT22;15105;56.514;21.002;2022-08-07T17:49:32;18.00;99.90
27697;DHT22;15105;56.514;21.002;2022-08-07T17:55:18;17.90;99.90
27697;DHT22;15105;56.514;21.002;2022-08-07T17:58:14;17.80;99.90
27697;DHT22;15105;56.514;21.002;2022-08-07T18:00:58;17.80;99.90
27697;DHT22;15105;56.514;21.002;2022-08-07T18:07:00;17.80;99.90
27697;DHT22;15105;56.514;21.002;2022-08-07T18:10:01;17.80;99.90
27697;DHT22;15105;56.514;21.002;2022-08-07T18:16:02;17.70;99.90
27697;DHT22;15105;56.514;21.002;2022-08-07T18:18:49;17.70;99.90
27697;DHT22;15105;56.514;21.002;2022-08-07T18:21:38;17.70;99.90
27697;DHT22;15105;56.514;21.002;2022-08-07T18:33:12;17.60;99.90
27697;DHT22;15105;56.514;21.002;2022-08-07T18:45:12;17.60;99.90
27697;DHT22;15105;56.514;21.002;2022-08-07T18:48:21;17.60;99.90
27697;DHT22;15105;56.514;21.002;2022-08-07T18:54:32;17.50;99.90
27697;DHT22;15105;56.514;21.002;2022-08-07T18:57:26;17.60;99.90
27697;DHT22;15105;56.514;21.002;2022-08-07T19:00:12;17.50;99.90
27697;DHT22;15105;56.514;21.002;2022-08-07T19:03:19;17.50;99.90
27697;DHT22;15105;56.514;21.002;2022-08-07T19:06:11;17.60;99.90
27697;DHT22;15105;56.514;21.002;2022-08-07T19:08:44;17.60;99.90
27697;DHT22;15105;56.514;21.002;2022-08-07T19:11:18;17.60;99.90
27697;DHT22;15105;56.514;21.002;2022-08-07T19:14:15;17.60;99.90
27697;DHT22;15105;56.514;21.002;2022-08-07T19:16:54;17.60;99.90
27697;DHT22;15105;56.514;21.002;2022-08-07T19:19:49;17.60;99.90
27697;DHT22;15105;56.514;21.002;2022-08-07T19:22:22;17.60;99.90
27697;DHT22;15105;56.514;21.002;2022-08-07T19:24:57;17.60;99.90
27697;DHT22;15105;56.514;21.002;2022-08-07T19:27:46;17.60;99.90
27697;DHT22;15105;56.514;21.002;2022-08-07T19:30:34;17.50;99.90
27697;DHT22;15105;56.514;21.002;2022-08-07T19:33:24;17.60;99.90
27697;DHT22;15105;56.514;21.002;2022-08-07T19:36:01;17.60;99.90
27697;DHT22;15105;56.514;21.002;2022-08-07T19:38:31;17.60;99.90
27697;DHT22;15105;56.514;21.002;2022-08-07T19:41:04;17.60;99.90
27697;DHT22;15105;56.514;21.002;2022-08-07T19:43:39;17.60;99.90
27697;DHT22;15105;56.514;21.002;2022-08-07T19:46:21;17.60;99.90
27697;DHT22;15105;56.514;21.002;2022-08-07T19:49:21;17.60;99.90
27697;DHT22;15105;56.514;21.002;2022-08-07T19:52:10;17.60;99.90
27697;DHT22;15105;56.514;21.002;2022-08-07T19:54:45;17.70;99.90
27697;DHT22;15105;56.514;21.002;2022-08-07T19:57:43;17.60;99.90
27697;DHT22;15105;56.514;21.002;2022-08-07T20:00:33;17.70;99.90
27697;DHT22;15105;56.514;21.002;2022-08-07T20:03:05;17.70;99.90
27697;DHT22;15105;56.514;21.002;2022-08-07T20:05:56;17.70;99.90
27697;DHT22;15105;56.514;21.002;2022-08-07T20:08:29;17.70;99.90
27697;DHT22;15105;56.514;21.002;2022-08-07T20:11:01;17.70;99.90
27697;DHT22;15105;56.514;21.002;2022-08-07T20:13:52;17.70;99.90
27697;DHT22;15105;56.514;21.002;2022-08-07T20:16:25;17.70;99.90
27697;DHT22;15105;56.514;21.002;2022-08-07T20:19:05;17.70;99.90
27697;DHT22;15105;56.514;21.002;2022-08-07T20:21:38;17.70;99.90
27697;DHT22;15105;56.514;21.002;2022-08-07T20:24:20;17.70;99.90
27697;DHT22;15105;56.514;21.002;2022-08-07T20:26:51;17.70;99.90
27697;DHT22;15105;56.514;21.002;2022-08-07T20:29:24;17.80;99.90
27697;DHT22;15105;56.514;21.002;2022-08-07T20:32:12;17.70;99.90
27697;DHT22;15105;56.514;21.002;2022-08-07T20:34:53;17.70;99.90
27697;DHT22;15105;56.514;21.002;2022-08-07T20:37:28;17.70;99.90
27697;DHT22;15105;56.514;21.002;2022-08-07T20:40:01;17.70;99.90
27697;DHT22;15105;56.514;21.002;2022-08-07T20:42:52;17.80;99.90
27697;DHT22;15105;56.514;21.002;2022-08-07T20:45:22;17.80;99.90
27697;DHT22;15105;56.514;21.002;2022-08-07T20:48:10;17.80;99.90
27697;DHT22;15105;56.514;21.002;2022-08-07T20:50:58;17.80;99.90
27697;DHT22;15105;56.514;21.002;2022-08-07T20:53:26;17.80;99.90
27697;DHT22;15105;56.514;21.002;2022-08-07T20:56:14;17.80;99.90
27697;DHT22;15105;56.514;21.002;2022-08-07T20:58:52;17.80;99.90
27697;DHT22;15105;56.514;21.002;2022-08-07T21:03:48;17.70;99.90
27697;DHT22;15105;56.514;21.002;2022-08-07T21:06:37;17.70;99.90
27697;DHT22;15105;56.514;21.002;2022-08-07T21:09:18;17.80;99.90
27697;DHT22;15105;56.514;21.002;2022-08-07T21:11:53;17.80;99.90
27697;DHT22;15105;56.514;21.002;2022-08-07T21:14:28;17.80;99.90
27697;DHT22;15105;56.514;21.002;2022-08-07T21:17:10;17.80;99.90
27697;DHT22;15105;56.514;21.002;2022-08-07T21:19:58;17.80;99.90
27697;DHT22;15105;56.514;21.002;2022-08-07T21:22:37;17.80;99.90
27697;DHT22;15105;56.514;21.002;2022-08-07T21:28:12;17.80;99.90
27697;DHT22;15105;56.514;21.002;2022-08-07T21:36:49;17.80;99.90
27697;DHT22;15105;56.514;21.002;2022-08-07T21:39:34;17.80;99.90
27697;DHT22;15105;56.514;21.002;2022-08-07T21:51:23;17.70;99.90
27697;DHT22;15105;56.514;21.002;2022-08-07T21:57:22;17.70;99.90
27697;DHT22;15105;56.514;21.002;2022-08-07T22:00:11;17.70;99.90
27697;DHT22;15105;56.514;21.002;2022-08-07T22:03:12;17.70;99.90
27697;DHT22;15105;56.514;21.002;2022-08-07T22:05:48;17.70;99.90
27697;DHT22;15105;56.514;21.002;2022-08-07T22:08:20;17.70;99.90
27697;DHT22;15105;56.514;21.002;2022-08-07T22:10:59;17.70;99.90
27697;DHT22;15105;56.514;21.002;2022-08-07T22:13:29;17.70;99.90
27697;DHT22;15105;56.514;21.002;2022-08-07T22:16:46;17.60;99.90
27697;DHT22;15105;56.514;21.002;2022-08-07T22:19:34;17.60;99.90
27697;DHT22;15105;56.514;21.002;2022-08-07T22:22:13;17.60;99.90
27697;DHT22;15105;56.514;21.002;2022-08-07T22:24:55;17.60;99.90
27697;DHT22;15105;56.514;21.002;2022-08-07T22:27:48;17.60;99.90
27697;DHT22;15105;56.514;21.002;2022-08-07T22:34:12;17.60;99.90
27697;DHT22;15105;56.514;21.002;2022-08-07T22:37:02;17.60;99.90
27697;DHT22;15105;56.514;21.002;2022-08-07T22:42:33;17.60;99.90
27697;DHT22;15105;56.514;21.002;2022-08-07T22:45:03;17.60;99.90